sensor_id;sensor_type;location;lat;lon;timestamp;pressure;altitude;pressure_sealevel;temperature;humidity
66385;BME280;53426;55.872;37.462;2023-08-08T00:01:39;98479.53;;;23.14;55.02
66385;BME280;53426;55.872;37.462;2023-08-08T00:04:10;98468.97;;;23.01;54.87
66385;BME280;53426;55.872;37.462;2023-08-08T00:10:38;98481.00;;;22.75;55.82
66385;BME280;53426;55.872;37.462;2023-08-08T00:13:04;98458.63;;;22.74;56.00
66385;BME280;53426;55.872;37.462;2023-08-08T00:16:19;98412.47;;;22.52;55.95
66385;BME280;53426;55.872;37.462;2023-08-08T00:18:29;98415.59;;;22.38;56.16
66385;BME280;53426;55.872;37.462;2023-08-08T00:20:55;98468.13;;;22.77;55.92
66385;BME280;53426;55.872;37.462;2023-08-08T00:23:20;98435.38;;;22.73;55.84
66385;BME280;53426;55.872;37.462;2023-08-08T00:25:46;98475.19;;;22.89;56.01
66385;BME280;53426;55.872;37.462;2023-08-08T00:28:17;98451.69;;;22.78;56.09
66385;BME280;53426;55.872;37.462;2023-08-08T00:30:44;98455.34;;;22.72;56.25
66385;BME280;53426;55.872;37.462;2023-08-08T00:33:10;98428.28;;;22.61;56.50
66385;BME280;53426;55.872;37.462;2023-08-08T00:35:36;98430.66;;;22.57;56.44
66385;BME280;53426;55.872;37.462;2023-08-08T00:38:02;98403.44;;;22.47;56.24
66385;BME280;53426;55.872;37.462;2023-08-08T00:40:28;98440.84;;;22.55;56.47
66385;BME280;53426;55.872;37.462;2023-08-08T00:42:54;98437.69;;;22.58;56.65
66385;BME280;53426;55.872;37.462;2023-08-08T00:45:20;98427.47;;;22.60;56.82
66385;BME280;53426;55.872;37.462;2023-08-08T00:47:46;98427.09;;;22.45;57.20
66385;BME280;53426;55.872;37.462;2023-08-08T00:50:13;98435.66;;;22.42;57.42
66385;BME280;53426;55.872;37.462;2023-08-08T00:52:41;98446.47;;;22.42;57.76
66385;BME280;53426;55.872;37.462;2023-08-08T00:55:08;98411.13;;;22.32;57.64
66385;BME280;53426;55.872;37.462;2023-08-08T00:57:34;98434.13;;;22.34;57.82
66385;BME280;53426;55.872;37.462;2023-08-08T01:00:07;98410.41;;;22.25;57.93
66385;BME280;53426;55.872;37.462;2023-08-08T01:02:35;98435.63;;;22.30;58.07
66385;BME280;53426;55.872;37.462;2023-08-08T01:05:02;98425.53;;;22.26;57.99
66385;BME280;53426;55.872;37.462;2023-08-08T01:07:57;98427.28;;;22.32;57.92
66385;BME280;53426;55.872;37.462;2023-08-08T01:10:28;98407.81;;;22.18;58.07
66385;BME280;53426;55.872;37.462;2023-08-08T01:13:00;98385.59;;;22.04;58.27
66385;BME280;53426;55.872;37.462;2023-08-08T01:15:29;98398.78;;;22.13;58.25
66385;BME280;53426;55.872;37.462;2023-08-08T01:18:05;98423.53;;;22.21;58.34
66385;BME280;53426;55.872;37.462;2023-08-08T01:20:32;98431.28;;;22.29;58.04
66385;BME280;53426;55.872;37.462;2023-08-08T01:25:59;98391.91;;;21.98;58.04
66385;BME280;53426;55.872;37.462;2023-08-08T01:28:26;98395.97;;;22.19;57.90
66385;BME280;53426;55.872;37.462;2023-08-08T01:30:52;98376.16;;;22.14;58.02
66385;BME280;53426;55.872;37.462;2023-08-08T01:33:20;98390.09;;;22.10;58.65
66385;BME280;53426;55.872;37.462;2023-08-08T01:35:51;98386.31;;;22.00;59.39
66385;BME280;53426;55.872;37.462;2023-08-08T01:38:42;98388.09;;;21.88;59.25
66385;BME280;53426;55.872;37.462;2023-08-08T01:41:09;98394.44;;;21.82;59.75
66385;BME280;53426;55.872;37.462;2023-08-08T01:43:37;98390.44;;;21.84;59.94
66385;BME280;53426;55.872;37.462;2023-08-08T01:46:04;98392.22;;;21.90;59.48
66385;BME280;53426;55.872;37.462;2023-08-08T01:48:30;98391.13;;;21.80;59.14
66385;BME280;53426;55.872;37.462;2023-08-08T01:50:56;98398.16;;;21.81;59.41
66385;BME280;53426;55.872;37.462;2023-08-08T01:53:22;98402.88;;;21.85;59.16
66385;BME280;53426;55.872;37.462;2023-08-08T01:55:48;98378.28;;;21.93;59.05
66385;BME280;53426;55.872;37.462;2023-08-08T01:58:15;98389.41;;;21.85;58.76
66385;BME280;53426;55.872;37.462;2023-08-08T02:00:41;98384.13;;;21.90;58.66
66385;BME280;53426;55.872;37.462;2023-08-08T02:03:09;98414.25;;;21.87;58.52
66385;BME280;53426;55.872;37.462;2023-08-08T02:05:37;98362.44;;;21.85;58.31
66385;BME280;53426;55.872;37.462;2023-08-08T02:08:03;98400.41;;;22.14;57.98
66385;BME280;53426;55.872;37.462;2023-08-08T02:10:30;98402.75;;;22.10;57.80
66385;BME280;53426;55.872;37.462;2023-08-08T02:12:56;98396.25;;;21.99;57.81
66385;BME280;53426;55.872;37.462;2023-08-08T02:15:22;98417.81;;;21.99;57.91
66385;BME280;53426;55.872;37.462;2023-08-08T02:17:50;98430.59;;;22.04;57.98
66385;BME280;53426;55.872;37.462;2023-08-08T02:20:36;98418.47;;;22.13;57.91
66385;BME280;53426;55.872;37.462;2023-08-08T02:23:02;98413.16;;;22.06;58.44
66385;BME280;53426;55.872;37.462;2023-08-08T02:25:28;98363.22;;;21.74;58.66
66385;BME280;53426;55.872;37.462;2023-08-08T02:27:53;98387.69;;;21.73;59.69
66385;BME280;53426;55.872;37.462;2023-08-08T02:30:19;98407.38;;;21.73;59.46
66385;BME280;53426;55.872;37.462;2023-08-08T02:32:45;98412.09;;;21.78;59.65
66385;BME280;53426;55.872;37.462;2023-08-08T02:35:11;98362.63;;;21.72;58.68
66385;BME280;53426;55.872;37.462;2023-08-08T02:37:37;98397.56;;;21.97;58.39
66385;BME280;53426;55.872;37.462;2023-08-08T02:40:05;98400.66;;;21.94;59.06
66385;BME280;53426;55.872;37.462;2023-08-08T02:42:31;98385.53;;;21.81;59.20
66385;BME280;53426;55.872;37.462;2023-08-08T02:44:57;98411.25;;;21.95;58.62
66385;BME280;53426;55.872;37.462;2023-08-08T02:47:24;98385.13;;;21.96;58.96
66385;BME280;53426;55.872;37.462;2023-08-08T02:49:50;98384.97;;;21.91;58.49
66385;BME280;53426;55.872;37.462;2023-08-08T02:52:16;98403.34;;;21.94;58.58
66385;BME280;53426;55.872;37.462;2023-08-08T02:54:42;98398.09;;;21.87;58.75
66385;BME280;53426;55.872;37.462;2023-08-08T02:57:08;98379.53;;;21.79;58.56
66385;BME280;53426;55.872;37.462;2023-08-08T02:59:37;98388.66;;;21.96;58.60
66385;BME280;53426;55.872;37.462;2023-08-08T03:02:05;98380.47;;;22.03;58.21
66385;BME280;53426;55.872;37.462;2023-08-08T03:04:33;98395.72;;;22.09;57.91
66385;BME280;53426;55.872;37.462;2023-08-08T03:06:59;98381.38;;;21.97;58.22
66385;BME280;53426;55.872;37.462;2023-08-08T03:09:29;98412.50;;;22.23;57.88
66385;BME280;53426;55.872;37.462;2023-08-08T03:11:55;98409.81;;;22.23;57.54
66385;BME280;53426;55.872;37.462;2023-08-08T03:14:21;98403.81;;;22.21;57.90
66385;BME280;53426;55.872;37.462;2023-08-08T03:16:47;98383.59;;;22.00;57.84
66385;BME280;53426;55.872;37.462;2023-08-08T03:19:13;98399.75;;;22.30;57.68
66385;BME280;53426;55.872;37.462;2023-08-08T03:21:42;98390.59;;;22.19;57.54
66385;BME280;53426;55.872;37.462;2023-08-08T03:24:08;98404.53;;;22.28;57.10
66385;BME280;53426;55.872;37.462;2023-08-08T03:26:34;98404.66;;;22.21;57.52
66385;BME280;53426;55.872;37.462;2023-08-08T03:29:00;98414.63;;;22.32;57.39
66385;BME280;53426;55.872;37.462;2023-08-08T03:31:36;98410.22;;;22.49;56.95
66385;BME280;53426;55.872;37.462;2023-08-08T03:34:08;98425.25;;;22.57;57.01
66385;BME280;53426;55.872;37.462;2023-08-08T03:36:34;98404.00;;;22.49;56.70
66385;BME280;53426;55.872;37.462;2023-08-08T03:42:23;98429.03;;;22.68;56.42
66385;BME280;53426;55.872;37.462;2023-08-08T03:45:47;98369.72;;;22.26;56.63
66385;BME280;53426;55.872;37.462;2023-08-08T03:48:13;98419.75;;;22.64;56.29
66385;BME280;53426;55.872;37.462;2023-08-08T03:50:39;98412.47;;;22.52;56.57
66385;BME280;53426;55.872;37.462;2023-08-08T03:53:05;98387.69;;;22.44;56.32
66385;BME280;53426;55.872;37.462;2023-08-08T03:55:32;98418.94;;;22.63;56.18
66385;BME280;53426;55.872;37.462;2023-08-08T03:57:58;98429.16;;;22.73;56.15
66385;BME280;53426;55.872;37.462;2023-08-08T04:00:24;98418.44;;;22.66;56.16
66385;BME280;53426;55.872;37.462;2023-08-08T04:02:50;98404.72;;;22.56;56.44
66385;BME280;53426;55.872;37.462;2023-08-08T04:05:20;98387.78;;;22.37;56.37
66385;BME280;53426;55.872;37.462;2023-08-08T04:07:46;98403.75;;;22.39;56.26
66385;BME280;53426;55.872;37.462;2023-08-08T04:10:12;98412.22;;;22.54;55.99
66385;BME280;53426;55.872;37.462;2023-08-08T04:12:40;98421.19;;;22.78;55.37
66385;BME280;53426;55.872;37.462;2023-08-08T04:15:06;98420.25;;;22.84;55.23
66385;BME280;53426;55.872;37.462;2023-08-08T04:17:32;98427.53;;;22.83;55.72
66385;BME280;53426;55.872;37.462;2023-08-08T04:19:58;98422.47;;;22.75;55.57
66385;BME280;53426;55.872;37.462;2023-08-08T04:22:24;98421.19;;;22.78;55.77
66385;BME280;53426;55.872;37.462;2023-08-08T04:24:50;98440.19;;;22.83;55.79
66385;BME280;53426;55.872;37.462;2023-08-08T04:27:20;98413.53;;;22.63;56.04
66385;BME280;53426;55.872;37.462;2023-08-08T04:29:50;98415.16;;;22.52;56.21
66385;BME280;53426;55.872;37.462;2023-08-08T04:32:16;98439.28;;;22.47;56.90
66385;BME280;53426;55.872;37.462;2023-08-08T04:34:42;98432.50;;;22.45;57.69
66385;BME280;53426;55.872;37.462;2023-08-08T04:37:08;98433.19;;;22.40;57.39
66385;BME280;53426;55.872;37.462;2023-08-08T04:39:37;98436.34;;;22.37;58.24
66385;BME280;53426;55.872;37.462;2023-08-08T04:42:03;98440.22;;;22.30;58.12
66385;BME280;53426;55.872;37.462;2023-08-08T04:44:30;98446.88;;;22.27;58.35
66385;BME280;53426;55.872;37.462;2023-08-08T04:46:57;98436.31;;;22.26;58.59
66385;BME280;53426;55.872;37.462;2023-08-08T04:49:24;98428.56;;;22.18;58.51
66385;BME280;53426;55.872;37.462;2023-08-08T04:51:49;98438.56;;;22.29;58.48
66385;BME280;53426;55.872;37.462;2023-08-08T04:54:15;98433.47;;;22.21;58.47
66385;BME280;53426;55.872;37.462;2023-08-08T04:56:41;98433.25;;;22.22;58.82
66385;BME280;53426;55.872;37.462;2023-08-08T04:59:13;98443.00;;;22.23;58.81
66385;BME280;53426;55.872;37.462;2023-08-08T05:01:39;98443.69;;;22.19;59.00
66385;BME280;53426;55.872;37.462;2023-08-08T05:04:04;98439.34;;;22.18;59.13
66385;BME280;53426;55.872;37.462;2023-08-08T05:06:30;98449.31;;;22.17;59.57
66385;BME280;53426;55.872;37.462;2023-08-08T05:08:56;98423.81;;;21.83;60.20
66385;BME280;53426;55.872;37.462;2023-08-08T05:11:23;98463.78;;;22.04;60.32
66385;BME280;53426;55.872;37.462;2023-08-08T05:13:49;98462.16;;;22.03;60.76
66385;BME280;53426;55.872;37.462;2023-08-08T05:16:15;98457.34;;;22.05;60.45
66385;BME280;53426;55.872;37.462;2023-08-08T05:18:41;98433.91;;;21.88;61.32
66385;BME280;53426;55.872;37.462;2023-08-08T05:21:09;98442.03;;;21.69;62.92
66385;BME280;53426;55.872;37.462;2023-08-08T05:23:35;98473.63;;;21.81;63.36
66385;BME280;53426;55.872;37.462;2023-08-08T05:26:01;98493.44;;;21.86;61.92
66385;BME280;53426;55.872;37.462;2023-08-08T05:28:27;98459.31;;;21.98;61.92
66385;BME280;53426;55.872;37.462;2023-08-08T05:30:53;98465.25;;;22.19;61.69
66385;BME280;53426;55.872;37.462;2023-08-08T05:33:19;98469.41;;;22.33;61.58
66385;BME280;53426;55.872;37.462;2023-08-08T05:35:45;98425.38;;;22.21;60.97
66385;BME280;53426;55.872;37.462;2023-08-08T05:38:11;98460.19;;;22.52;60.56
66385;BME280;53426;55.872;37.462;2023-08-08T05:40:37;98448.94;;;22.67;60.47
66385;BME280;53426;55.872;37.462;2023-08-08T05:43:03;98459.69;;;22.85;59.81
66385;BME280;53426;55.872;37.462;2023-08-08T05:45:30;98423.91;;;22.89;59.20
66385;BME280;53426;55.872;37.462;2023-08-08T05:47:57;98461.31;;;23.32;58.13
66385;BME280;53426;55.872;37.462;2023-08-08T05:50:26;98461.44;;;23.49;57.69
66385;BME280;53426;55.872;37.462;2023-08-08T05:52:52;98452.75;;;23.47;57.65
66385;BME280;53426;55.872;37.462;2023-08-08T05:55:21;98466.81;;;23.72;57.02
66385;BME280;53426;55.872;37.462;2023-08-08T05:57:48;98452.31;;;23.78;56.69
66385;BME280;53426;55.872;37.462;2023-08-08T06:00:15;98467.59;;;24.13;56.19
66385;BME280;53426;55.872;37.462;2023-08-08T06:02:42;98461.31;;;24.52;54.56
66385;BME280;53426;55.872;37.462;2023-08-08T06:05:08;98455.47;;;24.44;54.99
66385;BME280;53426;55.872;37.462;2023-08-08T06:07:36;98452.03;;;24.48;54.48
66385;BME280;53426;55.872;37.462;2023-08-08T06:10:02;98472.09;;;24.36;55.21
66385;BME280;53426;55.872;37.462;2023-08-08T06:12:31;98470.63;;;24.45;55.26
66385;BME280;53426;55.872;37.462;2023-08-08T06:14:57;98454.50;;;24.67;54.19
66385;BME280;53426;55.872;37.462;2023-08-08T06:17:23;98463.34;;;24.62;54.06
66385;BME280;53426;55.872;37.462;2023-08-08T06:19:49;98375.75;;;23.90;55.18
66385;BME280;53426;55.872;37.462;2023-08-08T06:22:19;98470.31;;;24.41;55.06
66385;BME280;53426;55.872;37.462;2023-08-08T06:24:45;98475.91;;;24.23;55.49
66385;BME280;53426;55.872;37.462;2023-08-08T06:27:12;98417.34;;;23.72;56.00
66385;BME280;53426;55.872;37.462;2023-08-08T06:29:39;98468.50;;;23.90;55.65
66385;BME280;53426;55.872;37.462;2023-08-08T06:32:05;98434.84;;;23.69;55.56
66385;BME280;53426;55.872;37.462;2023-08-08T06:34:31;98433.56;;;23.72;55.81
66385;BME280;53426;55.872;37.462;2023-08-08T06:37:01;98477.22;;;23.81;55.96
66385;BME280;53426;55.872;37.462;2023-08-08T06:39:30;98480.81;;;23.98;55.55
66385;BME280;53426;55.872;37.462;2023-08-08T06:41:56;98480.88;;;24.26;54.52
66385;BME280;53426;55.872;37.462;2023-08-08T06:44:43;98406.94;;;24.71;52.51
66385;BME280;53426;55.872;37.462;2023-08-08T06:47:10;98472.31;;;25.29;52.02
66385;BME280;53426;55.872;37.462;2023-08-08T06:49:38;98468.69;;;25.24;51.36
66385;BME280;53426;55.872;37.462;2023-08-08T06:52:04;98479.50;;;25.40;50.94
66385;BME280;53426;55.872;37.462;2023-08-08T06:54:31;98407.09;;;25.36;50.40
66385;BME280;53426;55.872;37.462;2023-08-08T06:56:58;98437.03;;;27.02;47.71
66385;BME280;53426;55.872;37.462;2023-08-08T06:59:25;98481.09;;;28.03;45.87
66385;BME280;53426;55.872;37.462;2023-08-08T07:02:04;98432.56;;;27.80;45.81
66385;BME280;53426;55.872;37.462;2023-08-08T07:04:30;98471.09;;;28.24;45.28
66385;BME280;53426;55.872;37.462;2023-08-08T07:06:56;98413.94;;;28.19;44.13
66385;BME280;53426;55.872;37.462;2023-08-08T07:09:23;98482.00;;;28.29;44.49
66385;BME280;53426;55.872;37.462;2023-08-08T07:11:50;98471.34;;;28.17;44.68
66385;BME280;53426;55.872;37.462;2023-08-08T07:14:15;98463.38;;;27.96;45.36
66385;BME280;53426;55.872;37.462;2023-08-08T07:16:41;98493.28;;;27.91;45.32
66385;BME280;53426;55.872;37.462;2023-08-08T07:19:07;98471.56;;;27.43;46.20
66385;BME280;53426;55.872;37.462;2023-08-08T07:21:33;98488.13;;;27.42;46.60
66385;BME280;53426;55.872;37.462;2023-08-08T07:23:59;98476.16;;;27.43;45.97
66385;BME280;53426;55.872;37.462;2023-08-08T07:26:28;98494.16;;;27.49;46.18
66385;BME280;53426;55.872;37.462;2023-08-08T07:28:54;98493.00;;;27.87;45.43
66385;BME280;53426;55.872;37.462;2023-08-08T07:31:21;98471.63;;;28.26;44.53
66385;BME280;53426;55.872;37.462;2023-08-08T07:33:47;98483.97;;;29.20;43.32
66385;BME280;53426;55.872;37.462;2023-08-08T07:36:13;98482.06;;;29.45;42.43
66385;BME280;53426;55.872;37.462;2023-08-08T07:38:39;98445.53;;;29.16;41.86
66385;BME280;53426;55.872;37.462;2023-08-08T07:41:06;98485.91;;;29.34;42.43
66385;BME280;53426;55.872;37.462;2023-08-08T07:43:35;98492.75;;;30.16;41.68
66385;BME280;53426;55.872;37.462;2023-08-08T07:46:01;98492.75;;;30.65;39.92
66385;BME280;53426;55.872;37.462;2023-08-08T07:48:28;98498.47;;;30.64;39.56
66385;BME280;53426;55.872;37.462;2023-08-08T07:50:54;98502.06;;;31.27;38.61
66385;BME280;53426;55.872;37.462;2023-08-08T07:53:19;98490.88;;;31.52;37.68
66385;BME280;53426;55.872;37.462;2023-08-08T07:55:46;98501.78;;;31.81;37.49
66385;BME280;53426;55.872;37.462;2023-08-08T07:58:11;98464.69;;;31.94;36.80
66385;BME280;53426;55.872;37.462;2023-08-08T08:00:38;98478.91;;;32.90;35.47
66385;BME280;53426;55.872;37.462;2023-08-08T08:03:04;98472.81;;;32.60;35.71
66385;BME280;53426;55.872;37.462;2023-08-08T08:05:30;98483.47;;;32.24;36.28
66385;BME280;53426;55.872;37.462;2023-08-08T08:07:56;98490.47;;;31.64;37.54
66385;BME280;53426;55.872;37.462;2023-08-08T08:10:21;98486.81;;;30.53;39.08
66385;BME280;53426;55.872;37.462;2023-08-08T08:12:47;98504.81;;;30.05;41.09
66385;BME280;53426;55.872;37.462;2023-08-08T08:15:13;98507.84;;;29.88;40.77
66385;BME280;53426;55.872;37.462;2023-08-08T08:17:39;98481.78;;;30.21;40.20
66385;BME280;53426;55.872;37.462;2023-08-08T08:20:07;98503.75;;;30.45;40.19
66385;BME280;53426;55.872;37.462;2023-08-08T08:22:37;98501.19;;;30.20;40.55
66385;BME280;53426;55.872;37.462;2023-08-08T08:25:05;98471.69;;;30.17;40.62
66385;BME280;53426;55.872;37.462;2023-08-08T08:27:33;98458.41;;;30.05;40.41
66385;BME280;53426;55.872;37.462;2023-08-08T08:29:59;98508.91;;;29.98;40.75
66385;BME280;53426;55.872;37.462;2023-08-08T08:32:25;98503.22;;;29.79;41.58
66385;BME280;53426;55.872;37.462;2023-08-08T08:34:51;98486.13;;;29.53;42.31
66385;BME280;53426;55.872;37.462;2023-08-08T08:37:17;98478.50;;;29.25;42.04
66385;BME280;53426;55.872;37.462;2023-08-08T08:39:44;98510.72;;;29.33;42.27
66385;BME280;53426;55.872;37.462;2023-08-08T08:42:11;98513.72;;;29.01;43.65
66385;BME280;53426;55.872;37.462;2023-08-08T08:44:40;98495.41;;;28.66;43.92
66385;BME280;53426;55.872;37.462;2023-08-08T08:47:08;98516.38;;;28.70;44.81
66385;BME280;53426;55.872;37.462;2023-08-08T08:49:38;98507.97;;;28.87;44.04
66385;BME280;53426;55.872;37.462;2023-08-08T08:52:04;98494.09;;;28.79;44.03
66385;BME280;53426;55.872;37.462;2023-08-08T08:54:32;98527.59;;;28.79;44.20
66385;BME280;53426;55.872;37.462;2023-08-08T08:56:59;98507.09;;;28.41;45.01
66385;BME280;53426;55.872;37.462;2023-08-08T08:59:25;98517.97;;;28.41;45.20
66385;BME280;53426;55.872;37.462;2023-08-08T09:01:51;98514.56;;;28.04;45.84
66385;BME280;53426;55.872;37.462;2023-08-08T09:04:20;98532.50;;;28.05;46.11
66385;BME280;53426;55.872;37.462;2023-08-08T09:06:47;98526.69;;;27.76;46.64
66385;BME280;53426;55.872;37.462;2023-08-08T09:09:14;98493.84;;;27.45;46.83
66385;BME280;53426;55.872;37.462;2023-08-08T09:11:47;98520.13;;;27.77;46.63
66385;BME280;53426;55.872;37.462;2023-08-08T09:14:22;98532.19;;;27.91;46.08
66385;BME280;53426;55.872;37.462;2023-08-08T09:16:51;98525.53;;;28.19;45.80
66385;BME280;53426;55.872;37.462;2023-08-08T09:19:20;98523.47;;;28.61;45.02
66385;BME280;53426;55.872;37.462;2023-08-08T09:21:47;98536.59;;;28.90;43.50
66385;BME280;53426;55.872;37.462;2023-08-08T09:24:14;98495.56;;;29.86;41.60
66385;BME280;53426;55.872;37.462;2023-08-08T09:26:44;98536.84;;;30.44;40.66
66385;BME280;53426;55.872;37.462;2023-08-08T09:29:14;98521.50;;;30.53;39.89
66385;BME280;53426;55.872;37.462;2023-08-08T09:31:41;98534.94;;;30.83;39.72
66385;BME280;53426;55.872;37.462;2023-08-08T09:34:07;98508.44;;;31.75;37.84
66385;BME280;53426;55.872;37.462;2023-08-08T09:36:36;98535.41;;;32.34;37.25
66385;BME280;53426;55.872;37.462;2023-08-08T09:39:02;98533.59;;;32.25;36.97
66385;BME280;53426;55.872;37.462;2023-08-08T09:41:29;98542.34;;;31.79;37.56
66385;BME280;53426;55.872;37.462;2023-08-08T09:43:59;98540.97;;;31.53;38.64
66385;BME280;53426;55.872;37.462;2023-08-08T09:46:25;98550.22;;;30.89;39.39
66385;BME280;53426;55.872;37.462;2023-08-08T09:48:51;98509.31;;;30.30;40.35
66385;BME280;53426;55.872;37.462;2023-08-08T09:51:20;98546.31;;;29.87;41.88
66385;BME280;53426;55.872;37.462;2023-08-08T09:53:46;98522.19;;;29.35;42.18
66385;BME280;53426;55.872;37.462;2023-08-08T09:56:14;98532.22;;;29.09;42.87
66385;BME280;53426;55.872;37.462;2023-08-08T09:58:42;98546.69;;;28.84;43.50
66385;BME280;53426;55.872;37.462;2023-08-08T10:01:10;98548.22;;;28.55;43.95
66385;BME280;53426;55.872;37.462;2023-08-08T10:03:38;98549.81;;;28.36;44.84
66385;BME280;53426;55.872;37.462;2023-08-08T10:06:05;98560.16;;;28.39;44.82
66385;BME280;53426;55.872;37.462;2023-08-08T10:08:31;98547.63;;;28.33;45.15
66385;BME280;53426;55.872;37.462;2023-08-08T10:10:57;98514.38;;;28.20;44.81
66385;BME280;53426;55.872;37.462;2023-08-08T10:13:25;98542.78;;;28.55;44.67
66385;BME280;53426;55.872;37.462;2023-08-08T10:15:52;98529.41;;;28.38;44.64
66385;BME280;53426;55.872;37.462;2023-08-08T10:18:21;98547.13;;;28.41;45.26
66385;BME280;53426;55.872;37.462;2023-08-08T10:20:49;98553.41;;;28.61;44.89
66385;BME280;53426;55.872;37.462;2023-08-08T10:23:18;98550.72;;;28.71;44.45
66385;BME280;53426;55.872;37.462;2023-08-08T10:25:50;98550.22;;;28.80;44.08
66385;BME280;53426;55.872;37.462;2023-08-08T10:28:19;98545.00;;;28.68;44.53
66385;BME280;53426;55.872;37.462;2023-08-08T10:30:48;98550.44;;;28.63;45.08
66385;BME280;53426;55.872;37.462;2023-08-08T10:33:40;98553.69;;;28.55;44.92
66385;BME280;53426;55.872;37.462;2023-08-08T10:36:07;98561.56;;;27.89;46.54
66385;BME280;53426;55.872;37.462;2023-08-08T10:38:47;98562.22;;;27.59;47.59
66385;BME280;53426;55.872;37.462;2023-08-08T10:41:18;98564.41;;;27.62;47.65
66385;BME280;53426;55.872;37.462;2023-08-08T10:43:50;98565.84;;;27.75;46.85
66385;BME280;53426;55.872;37.462;2023-08-08T10:46:45;98571.97;;;27.55;47.41
66385;BME280;53426;55.872;37.462;2023-08-08T10:49:11;98563.44;;;27.10;48.87
66385;BME280;53426;55.872;37.462;2023-08-08T10:51:42;98568.22;;;26.97;49.30
66385;BME280;53426;55.872;37.462;2023-08-08T10:54:22;98585.31;;;26.93;48.93
66385;BME280;53426;55.872;37.462;2023-08-08T10:56:50;98564.91;;;26.69;48.95
66385;BME280;53426;55.872;37.462;2023-08-08T10:59:19;98593.28;;;26.78;49.49
66385;BME280;53426;55.872;37.462;2023-08-08T11:01:49;98588.00;;;26.66;49.80
66385;BME280;53426;55.872;37.462;2023-08-08T11:04:18;98591.00;;;26.43;50.69
66385;BME280;53426;55.872;37.462;2023-08-08T11:06:45;98551.56;;;26.18;50.81
66385;BME280;53426;55.872;37.462;2023-08-08T11:09:14;98559.00;;;26.23;50.75
66385;BME280;53426;55.872;37.462;2023-08-08T11:11:41;98594.19;;;26.61;50.01
66385;BME280;53426;55.872;37.462;2023-08-08T11:14:11;98592.66;;;26.71;49.93
66385;BME280;53426;55.872;37.462;2023-08-08T11:16:37;98576.47;;;26.54;49.55
66385;BME280;53426;55.872;37.462;2023-08-08T11:19:04;98550.06;;;26.22;49.50
66385;BME280;53426;55.872;37.462;2023-08-08T11:21:33;98603.03;;;26.52;49.71
66385;BME280;53426;55.872;37.462;2023-08-08T11:24:04;98599.78;;;26.50;49.56
66385;BME280;53426;55.872;37.462;2023-08-08T11:26:30;98572.34;;;26.51;49.02
66385;BME280;53426;55.872;37.462;2023-08-08T11:29:00;98585.38;;;26.76;48.60
66385;BME280;53426;55.872;37.462;2023-08-08T11:31:30;98596.81;;;26.78;48.41
66385;BME280;53426;55.872;37.462;2023-08-08T11:33:57;98556.47;;;26.65;48.37
66385;BME280;53426;55.872;37.462;2023-08-08T11:36:34;98585.25;;;26.88;48.33
66385;BME280;53426;55.872;37.462;2023-08-08T11:39:03;98600.41;;;27.11;48.13
66385;BME280;53426;55.872;37.462;2023-08-08T11:41:35;98602.78;;;27.34;47.76
66385;BME280;53426;55.872;37.462;2023-08-08T11:44:05;98595.81;;;27.48;47.13
66385;BME280;53426;55.872;37.462;2023-08-08T11:46:32;98575.91;;;27.74;46.49
66385;BME280;53426;55.872;37.462;2023-08-08T11:49:05;98600.16;;;28.28;45.47
66385;BME280;53426;55.872;37.462;2023-08-08T11:51:33;98605.41;;;28.50;45.22
66385;BME280;53426;55.872;37.462;2023-08-08T11:54:03;98602.72;;;28.60;44.34
66385;BME280;53426;55.872;37.462;2023-08-08T11:56:34;98549.53;;;28.32;44.77
66385;BME280;53426;55.872;37.462;2023-08-08T11:59:04;98579.03;;;28.60;44.20
66385;BME280;53426;55.872;37.462;2023-08-08T12:01:32;98544.91;;;28.43;44.33
66385;BME280;53426;55.872;37.462;2023-08-08T12:04:04;98601.44;;;28.78;44.62
66385;BME280;53426;55.872;37.462;2023-08-08T12:06:31;98554.41;;;28.25;45.08
66385;BME280;53426;55.872;37.462;2023-08-08T12:08:56;98590.50;;;28.67;45.22
66385;BME280;53426;55.872;37.462;2023-08-08T12:11:22;98588.00;;;28.51;45.50
66385;BME280;53426;55.872;37.462;2023-08-08T12:13:48;98583.41;;;28.71;44.97
66385;BME280;53426;55.872;37.462;2023-08-08T12:16:14;98577.19;;;28.86;44.70
66385;BME280;53426;55.872;37.462;2023-08-08T12:18:43;98586.69;;;28.68;45.00
66385;BME280;53426;55.872;37.462;2023-08-08T12:21:09;98586.59;;;28.48;45.56
66385;BME280;53426;55.872;37.462;2023-08-08T12:23:36;98594.25;;;28.46;45.41
66385;BME280;53426;55.872;37.462;2023-08-08T12:26:04;98596.34;;;28.24;45.50
66385;BME280;53426;55.872;37.462;2023-08-08T12:28:33;98589.22;;;28.13;46.02
66385;BME280;53426;55.872;37.462;2023-08-08T12:31:00;98584.75;;;28.02;46.18
66385;BME280;53426;55.872;37.462;2023-08-08T12:33:26;98601.94;;;28.07;46.32
66385;BME280;53426;55.872;37.462;2023-08-08T12:35:52;98520.59;;;27.59;46.43
66385;BME280;53426;55.872;37.462;2023-08-08T12:38:18;98567.78;;;27.84;46.40
66385;BME280;53426;55.872;37.462;2023-08-08T12:40:44;98604.94;;;28.11;46.59
66385;BME280;53426;55.872;37.462;2023-08-08T12:43:37;98594.28;;;28.61;46.00
66385;BME280;53426;55.872;37.462;2023-08-08T12:46:03;98589.91;;;28.55;45.53
66385;BME280;53426;55.872;37.462;2023-08-08T12:48:29;98562.03;;;28.23;46.13
66385;BME280;53426;55.872;37.462;2023-08-08T12:50:56;98588.97;;;28.19;46.62
66385;BME280;53426;55.872;37.462;2023-08-08T12:53:22;98600.03;;;28.08;47.10
66385;BME280;53426;55.872;37.462;2023-08-08T12:55:49;98577.38;;;27.92;47.23
66385;BME280;53426;55.872;37.462;2023-08-08T12:58:17;98594.19;;;27.84;47.91
66385;BME280;53426;55.872;37.462;2023-08-08T13:00:43;98595.56;;;27.86;47.61
66385;BME280;53426;55.872;37.462;2023-08-08T13:03:09;98575.34;;;27.72;48.03
66385;BME280;53426;55.872;37.462;2023-08-08T13:05:36;98597.41;;;27.76;47.68